Barnes Municipal Airport


Codes: KBAF/BAF
Name: Barnes Municipal Airport
City: Westfield/Springfield
Country: United States
Elevation: 271 ft.
Wikipedia:

Photos at Barnes Municipal Airport


   Photos courtesy of SpottingLog. You can add your own sightings and photos by signing up for a free trial today.



No photos found.

Weather at Barnes Municipal Airport


Time (UTC)DescriptionTempratureWindCloud coverageVisibilityPressureHumidity
18-Apr-2024 00:00Overcast Clouds12°C7 mph, S100%10000m1018hPa52%
18-Apr-2024 03:00Light Rain11°C4 mph, S100%7691m1019hPa66%
18-Apr-2024 06:00Moderate Rain8°C4 mph, E100%10000m1019hPa82%
18-Apr-2024 09:00Moderate Rain6°C7 mph, E100%3700m1019hPa97%
18-Apr-2024 12:00Light Rain6°C7 mph, NE100%10000m1020hPa94%
18-Apr-2024 15:00Light Rain7°C4 mph, NE100%10000m1021hPa86%
18-Apr-2024 18:00Light Rain6°C4 mph, NE100%10000m1021hPa92%
18-Apr-2024 21:00Light Rain6°C4 mph, NE100%10000m1021hPa93%
19-Apr-2024 00:00Overcast Clouds6°C4 mph, N100%10000m1022hPa93%
19-Apr-2024 03:00Overcast Clouds5°C2 mph, N100%10000m1022hPa93%
19-Apr-2024 06:00Overcast Clouds5°C2 mph, NE100%10000m1022hPa94%
19-Apr-2024 09:00Overcast Clouds5°C2 mph, NE99%10000m1022hPa95%
19-Apr-2024 12:00Overcast Clouds7°C2 mph, E92%10000m1022hPa84%
19-Apr-2024 15:00Overcast Clouds11°C4 mph, SE100%10000m1021hPa55%
19-Apr-2024 18:00Overcast Clouds15°C9 mph, S100%10000m1018hPa48%
19-Apr-2024 21:00Overcast Clouds12°C11 mph, S100%10000m1017hPa54%
20-Apr-2024 00:00Moderate Rain7°C7 mph, S100%10000m1018hPa95%
20-Apr-2024 03:00Light Rain8°C4 mph, S100%10000m1017hPa97%
20-Apr-2024 06:00Overcast Clouds8°C4 mph, S100%10000m1016hPa97%
20-Apr-2024 09:00Overcast Clouds7°C2 mph, W100%10000m1015hPa98%
20-Apr-2024 12:00Overcast Clouds10°C2 mph, NW98%10000m1016hPa70%
20-Apr-2024 15:00Overcast Clouds14°C4 mph, W98%10000m1014hPa43%
20-Apr-2024 18:00Overcast Clouds16°C9 mph, W98%10000m1012hPa41%
20-Apr-2024 21:00Light Rain10°C9 mph, SW100%10000m1012hPa68%
21-Apr-2024 00:00Light Rain8°C9 mph, NW100%10000m1013hPa66%
21-Apr-2024 03:00Scattered Clouds5°C9 mph, NW37%10000m1014hPa68%
21-Apr-2024 06:00Few Clouds4°C9 mph, NW20%10000m1014hPa71%
21-Apr-2024 09:00Clear Sky3°C7 mph, W0%10000m1015hPa71%
21-Apr-2024 12:00Clear Sky5°C9 mph, NW1%10000m1017hPa62%
21-Apr-2024 15:00Few Clouds10°C11 mph, NW18%10000m1016hPa41%
21-Apr-2024 18:00Broken Clouds13°C11 mph, W58%10000m1014hPa35%
21-Apr-2024 21:00Overcast Clouds13°C11 mph, NW92%10000m1013hPa37%
22-Apr-2024 00:00Overcast Clouds7°C4 mph, NW94%10000m1014hPa63%
22-Apr-2024 03:00Scattered Clouds4°C4 mph, W40%10000m1016hPa76%
22-Apr-2024 06:00Scattered Clouds3°C4 mph, W47%10000m1016hPa75%
22-Apr-2024 09:00Clear Sky2°C2 mph, W3%10000m1016hPa81%
22-Apr-2024 12:00Clear Sky7°C7 mph, W2%10000m1017hPa60%
22-Apr-2024 15:00Clear Sky12°C11 mph, NW0%10000m1016hPa40%
22-Apr-2024 18:00Clear Sky15°C11 mph, NW1%10000m1015hPa33%
22-Apr-2024 21:00Clear Sky15°C11 mph, NW3%10000m1015hPa38%